createdAt,value
2019-04-27T00:02:06.248Z,6.76
2019-04-27T00:04:33.574Z,6.69
2019-04-27T00:07:00.707Z,6.66
2019-04-27T00:09:27.747Z,6.62
2019-04-27T00:11:55.135Z,6.59
2019-04-27T00:14:23.886Z,6.60
2019-04-27T00:16:51.194Z,6.61
2019-04-27T00:19:18.528Z,6.59
2019-04-27T00:21:45.568Z,6.55
2019-04-27T00:24:13.558Z,6.48
2019-04-27T00:26:41.004Z,6.47
2019-04-27T00:29:08.054Z,6.42
2019-04-27T00:31:35.096Z,6.35
2019-04-27T00:34:03.622Z,6.32
2019-04-27T00:36:31.048Z,6.29
2019-04-27T00:38:58.172Z,6.29
2019-04-27T00:41:25.275Z,6.33
2019-04-27T00:43:53.202Z,6.34
2019-04-27T00:46:20.636Z,6.34
2019-04-27T00:48:47.963Z,6.36
2019-04-27T00:51:14.998Z,6.38
2019-04-27T00:53:43.561Z,6.38
2019-04-27T00:56:11.024Z,6.41
2019-04-27T00:58:38.075Z,6.42
2019-04-27T01:04:08.074Z,6.48
2019-04-27T01:06:36.084Z,6.52
2019-04-27T01:09:03.643Z,6.57
2019-04-27T01:11:33.295Z,6.60
2019-04-27T01:14:00.448Z,6.68
2019-04-27T01:16:29.322Z,6.71
2019-04-27T01:18:56.630Z,6.72
2019-04-27T01:21:23.671Z,6.76
2019-04-27T01:23:50.731Z,6.69
2019-04-27T01:26:18.606Z,6.66
2019-04-27T01:28:45.957Z,6.68
2019-04-27T01:31:13.246Z,6.70
2019-04-27T01:33:40.658Z,6.71
2019-04-27T01:36:08.915Z,6.69
2019-04-27T01:38:36.448Z,6.68
2019-04-27T01:41:03.484Z,6.61
2019-04-27T01:43:30.535Z,6.60
2019-04-27T01:45:58.740Z,6.55
2019-04-27T01:48:28.246Z,6.57
2019-04-27T01:50:55.560Z,6.57
2019-04-27T01:53:22.616Z,6.58
2019-04-27T01:55:49.650Z,6.59
2019-04-27T01:58:19.945Z,6.63
2019-04-27T02:00:45.653Z,6.62
2019-04-27T02:03:14.566Z,6.67
2019-04-27T02:05:41.854Z,6.70
2019-04-27T02:08:09.572Z,6.71
2019-04-27T02:10:39.407Z,6.70
2019-04-27T02:13:08.949Z,6.69
2019-04-27T02:15:36.181Z,6.66
2019-04-27T02:18:03.218Z,6.63
2019-04-27T02:20:30.542Z,6.59
2019-04-27T02:22:58.779Z,6.56
2019-04-27T02:25:25.912Z,6.49
2019-04-27T02:27:52.950Z,6.42
2019-04-27T02:30:20.646Z,6.31
2019-04-27T02:32:49.837Z,6.24
2019-04-27T02:35:16.665Z,6.20
2019-04-27T02:37:43.707Z,6.12
2019-04-27T02:40:11.127Z,6.03
2019-04-27T02:42:39.302Z,5.95
2019-04-27T02:45:09.519Z,5.96
2019-04-27T02:47:35.907Z,5.93
2019-04-27T02:50:02.972Z,5.89
2019-04-27T02:52:30.305Z,5.84
2019-04-27T02:54:59.345Z,5.77
2019-04-27T02:57:29.736Z,5.75
2019-04-27T02:59:56.359Z,5.77
2019-04-27T03:02:23.390Z,5.72
2019-04-27T03:04:50.842Z,5.73
2019-04-27T03:07:19.920Z,5.69
2019-04-27T03:09:46.605Z,5.65
2019-04-27T03:12:13.647Z,5.65
2019-04-27T03:14:41.065Z,5.63
2019-04-27T03:17:09.916Z,5.61
2019-04-27T03:19:39.516Z,5.62
2019-04-27T03:22:09.400Z,5.59
2019-04-27T03:24:35.666Z,5.57
2019-04-27T03:27:02.957Z,5.64
2019-04-27T03:29:30.673Z,5.68
2019-04-27T03:32:01.563Z,5.67
2019-04-27T03:34:26.471Z,5.63
2019-04-27T03:36:53.517Z,5.57
2019-04-27T03:39:20.798Z,5.51
2019-04-27T03:41:52.331Z,5.48
2019-04-27T03:44:16.577Z,5.44
2019-04-27T03:46:43.636Z,5.40
2019-04-27T03:49:20.301Z,5.46
2019-04-27T03:51:40.805Z,5.44
2019-04-27T03:54:10.394Z,5.37
2019-04-27T03:56:39.369Z,5.36
2019-04-27T03:59:05.946Z,5.42
2019-04-27T04:01:32.992Z,5.31
2019-04-27T04:04:00.354Z,5.24
2019-04-27T04:06:29.544Z,5.19
2019-04-27T04:08:56.496Z,5.18
2019-04-27T04:11:23.845Z,5.22
2019-04-27T04:13:51.124Z,5.21
2019-04-27T04:16:20.271Z,5.23
2019-04-27T04:18:46.919Z,5.22
2019-04-27T04:21:14.292Z,5.18
2019-04-27T04:23:41.648Z,5.14
2019-04-27T04:26:09.848Z,5.08
2019-04-27T04:28:36.913Z,5.08
2019-04-27T04:31:03.968Z,5.15
2019-04-27T04:33:31.006Z,5.25
2019-04-27T04:35:59.727Z,5.38
2019-04-27T04:38:27.056Z,5.74
2019-04-27T04:40:54.090Z,6.37
2019-04-27T04:43:21.137Z,6.52
2019-04-27T04:45:50.048Z,6.28
2019-04-27T04:48:19.853Z,6.10
2019-04-27T04:50:46.367Z,6.09
2019-04-27T04:53:13.419Z,7.17
2019-04-27T04:55:40.710Z,8.60
2019-04-27T04:58:09.385Z,10.16
2019-04-27T05:00:36.620Z,11.49
2019-04-27T05:03:03.682Z,12.58
2019-04-27T05:05:30.719Z,13.20
2019-04-27T05:08:00.374Z,13.95
2019-04-27T05:10:26.779Z,14.96
2019-04-27T05:12:54.177Z,16.10
2019-04-27T05:15:21.530Z,15.90
2019-04-27T05:17:50.803Z,16.61
2019-04-27T05:20:24.643Z,17.55
2019-04-27T05:22:46.431Z,18.14
2019-04-27T05:25:13.818Z,18.50
2019-04-27T05:27:40.874Z,18.38
2019-04-27T05:30:09.306Z,18.79
2019-04-27T05:32:36.462Z,19.57
2019-04-27T05:35:03.507Z,19.77
2019-04-27T05:37:31.782Z,20.31
2019-04-27T05:39:59.282Z,20.67
2019-04-27T05:42:26.343Z,21.18
2019-04-27T05:44:53.682Z,21.96
2019-04-27T05:47:21.042Z,22.17
2019-04-27T05:49:48.600Z,22.04
2019-04-27T05:52:15.626Z,22.04
2019-04-27T05:54:42.669Z,22.41
2019-04-27T05:57:09.726Z,22.06
2019-04-27T05:59:37.103Z,22.63
2019-04-27T06:02:04.157Z,22.93
2019-04-27T06:04:32.266Z,22.91
2019-04-27T06:07:01.043Z,22.89
2019-04-27T06:09:28.953Z,22.25
2019-04-27T06:11:56.450Z,22.41
2019-04-27T06:14:23.506Z,22.93
2019-04-27T06:16:51.617Z,22.90
2019-04-27T06:19:19.443Z,22.88
2019-04-27T06:21:46.527Z,23.18
2019-04-27T06:24:13.931Z,24.01
2019-04-27T06:26:41.218Z,23.80
2019-04-27T06:29:09.527Z,24.29
2019-04-27T06:31:36.697Z,24.43
2019-04-27T06:34:04.063Z,24.95
2019-04-27T06:36:31.121Z,25.79
2019-04-27T06:38:58.927Z,25.72
2019-04-27T06:41:26.080Z,24.77
2019-04-27T06:43:53.134Z,24.11
2019-04-27T06:46:20.535Z,24.37
2019-04-27T06:48:49.476Z,24.88
2019-04-27T06:51:16.707Z,24.55
2019-04-27T06:53:43.772Z,25.12
2019-04-27T06:56:10.805Z,24.26
2019-04-27T06:58:40.489Z,24.56
2019-04-27T07:01:06.598Z,24.77
2019-04-27T07:03:33.655Z,24.21
2019-04-27T07:06:00.700Z,24.58
2019-04-27T07:08:30.523Z,25.40
2019-04-27T07:10:56.511Z,25.94
2019-04-27T07:13:23.551Z,25.63
2019-04-27T07:15:50.941Z,25.58
2019-04-27T07:18:18.643Z,24.20
2019-04-27T07:20:45.719Z,22.91
2019-04-27T07:23:12.776Z,21.52
2019-04-27T07:25:39.817Z,20.79
2019-04-27T07:28:06.940Z,20.73
2019-04-27T07:30:33.976Z,21.12
2019-04-27T07:33:01.307Z,21.34
2019-04-27T07:35:29.606Z,21.55
2019-04-27T07:37:56.761Z,20.72
2019-04-27T07:40:24.107Z,19.25
2019-04-27T07:42:51.467Z,19.40
2019-04-27T07:45:19.639Z,19.35
2019-04-27T07:47:46.610Z,19.17
2019-04-27T07:50:13.674Z,19.99
2019-04-27T07:52:40.707Z,20.95
2019-04-27T07:55:08.700Z,21.38
2019-04-27T07:57:35.829Z,21.88
2019-04-27T08:00:03.233Z,21.99
2019-04-27T08:02:31.713Z,22.50
2019-04-27T08:04:59.612Z,22.46
2019-04-27T08:07:26.697Z,22.57
2019-04-27T08:09:53.748Z,22.33
2019-04-27T08:12:21.092Z,22.33
2019-04-27T08:14:49.062Z,22.40
2019-04-27T08:17:16.306Z,22.80
2019-04-27T08:19:43.362Z,22.78
2019-04-27T08:22:10.406Z,22.24
2019-04-27T08:24:39.406Z,22.18
2019-04-27T08:27:06.441Z,22.56
2019-04-27T08:29:33.568Z,22.99
2019-04-27T08:32:00.613Z,23.59
2019-04-27T08:34:29.490Z,23.90
2019-04-27T08:36:56.581Z,24.12
2019-04-27T08:39:23.639Z,24.26
2019-04-27T08:41:50.679Z,23.68
2019-04-27T08:44:19.405Z,22.98
2019-04-27T08:46:46.567Z,22.77
2019-04-27T08:49:13.614Z,22.72
2019-04-27T08:51:41.618Z,22.44
2019-04-27T08:54:09.218Z,21.94
2019-04-27T08:56:36.274Z,19.71
2019-04-27T08:59:03.317Z,19.07
2019-04-27T09:01:30.364Z,18.87
2019-04-27T09:03:59.087Z,18.83
2019-04-27T09:06:26.302Z,18.87
2019-04-27T09:08:53.682Z,19.09
2019-04-27T09:11:20.784Z,20.07
2019-04-27T09:13:48.774Z,21.28
2019-04-27T09:16:15.824Z,22.02
2019-04-27T09:18:43.235Z,22.22
2019-04-27T09:21:10.738Z,22.07
2019-04-27T09:23:38.901Z,21.89
2019-04-27T09:26:06.397Z,20.61
2019-04-27T09:28:33.508Z,20.53
2019-04-27T09:31:00.560Z,20.39
2019-04-27T09:33:27.604Z,19.75
2019-04-27T09:35:56.587Z,18.65
2019-04-27T09:38:23.824Z,17.74
2019-04-27T09:40:51.145Z,16.93
2019-04-27T09:43:18.187Z,16.34
2019-04-27T09:45:47.171Z,16.24
2019-04-27T09:48:15.928Z,16.44
2019-04-27T09:50:43.120Z,16.22
2019-04-27T09:53:10.233Z,16.20
2019-04-27T09:55:37.286Z,16.17
2019-04-27T09:58:05.752Z,15.72
2019-04-27T10:00:32.958Z,15.10
2019-04-27T10:03:00.414Z,13.68
2019-04-27T10:05:27.483Z,12.35
2019-04-27T10:07:54.523Z,11.61
2019-04-27T10:10:21.862Z,11.15
2019-04-27T10:12:48.910Z,10.88
2019-04-27T10:15:16.354Z,10.80
2019-04-27T10:17:43.383Z,10.80
2019-04-27T10:20:10.423Z,11.05
2019-04-27T10:22:41.227Z,11.30
2019-04-27T10:25:06.554Z,11.78
2019-04-27T10:27:33.610Z,12.08
2019-04-27T10:30:00.653Z,12.60
2019-04-27T10:32:28.160Z,12.87
2019-04-27T10:34:57.386Z,13.03
2019-04-27T10:37:24.443Z,12.98
2019-04-27T10:39:51.480Z,13.22
2019-04-27T10:42:18.534Z,13.04
2019-04-27T10:44:46.302Z,13.05
2019-04-27T10:47:13.386Z,12.91
2019-04-27T10:49:40.431Z,12.84
2019-04-27T10:52:07.725Z,12.66
2019-04-27T10:54:35.075Z,12.58
2019-04-27T10:57:02.133Z,12.77
2019-04-27T10:59:29.181Z,12.89
2019-04-27T11:01:56.238Z,13.11
2019-04-27T11:04:23.280Z,13.35
2019-04-27T11:06:50.411Z,13.27
2019-04-27T11:09:18.534Z,13.30
2019-04-27T11:11:46.351Z,13.67
2019-04-27T11:14:13.532Z,14.43
2019-04-27T11:16:40.586Z,15.22
2019-04-27T11:19:07.622Z,15.23
2019-04-27T11:21:34.678Z,15.57
2019-04-27T11:24:01.721Z,15.79
2019-04-27T11:26:28.769Z,15.65
2019-04-27T11:28:56.103Z,15.65
2019-04-27T11:31:23.137Z,15.18
2019-04-27T11:33:50.199Z,14.43
2019-04-27T11:36:17.258Z,13.77
2019-04-27T11:38:46.505Z,13.24
2019-04-27T11:41:13.901Z,12.81
2019-04-27T11:43:41.253Z,12.49
2019-04-27T11:46:08.301Z,12.27
2019-04-27T11:48:36.174Z,12.08
2019-04-27T11:51:03.177Z,11.74
2019-04-27T11:53:30.229Z,11.56
2019-04-27T11:55:57.266Z,11.52
2019-04-27T11:58:24.324Z,11.67
2019-04-27T12:00:51.722Z,11.84
2019-04-27T12:03:18.779Z,11.93
2019-04-27T12:05:46.897Z,12.15
2019-04-27T12:08:13.952Z,12.28
2019-04-27T12:10:40.991Z,12.61
2019-04-27T12:13:08.049Z,12.84
2019-04-27T12:15:36.237Z,13.05
2019-04-27T12:18:03.394Z,13.14
2019-04-27T12:20:30.485Z,13.40
2019-04-27T12:22:57.544Z,13.39
2019-04-27T12:25:24.584Z,13.55
2019-04-27T12:27:52.608Z,13.57
2019-04-27T12:30:19.654Z,13.34
2019-04-27T12:32:46.711Z,13.22
2019-04-27T12:35:13.993Z,13.63
2019-04-27T12:37:41.065Z,14.06
2019-04-27T12:40:08.098Z,14.21
2019-04-27T12:42:36.426Z,14.11
2019-04-27T12:45:03.577Z,14.02
2019-04-27T12:47:30.955Z,14.24
2019-04-27T12:49:58.006Z,14.47
2019-04-27T12:52:25.957Z,13.84
2019-04-27T12:54:52.981Z,13.06
2019-04-27T12:57:20.959Z,12.56
2019-04-27T12:59:48.445Z,12.38
2019-04-27T13:02:15.485Z,12.30
2019-04-27T13:04:42.543Z,12.39
2019-04-27T13:07:09.586Z,12.80
2019-04-27T13:09:36.643Z,13.43
2019-04-27T13:12:03.997Z,13.58
2019-04-27T13:14:31.055Z,13.85
2019-04-27T13:16:58.265Z,13.88
2019-04-27T13:19:25.873Z,14.03
2019-04-27T13:21:53.039Z,14.22
2019-04-27T13:24:20.094Z,14.47
2019-04-27T13:26:47.405Z,14.35
2019-04-27T13:29:14.458Z,14.48
2019-04-27T13:31:41.760Z,14.70
2019-04-27T13:34:08.893Z,14.83
2019-04-27T13:36:36.797Z,14.88
2019-04-27T13:39:03.962Z,14.84
2019-04-27T13:41:32.969Z,14.62
2019-04-27T13:44:00.451Z,14.56
2019-04-27T13:46:27.781Z,14.29
2019-04-27T13:48:56.276Z,14.04
2019-04-27T13:51:25.540Z,14.02
2019-04-27T13:53:52.471Z,13.98
2019-04-27T13:56:19.516Z,13.82
2019-04-27T13:58:46.915Z,13.75
2019-04-27T14:01:13.951Z,13.71
2019-04-27T14:03:41.012Z,14.07
2019-04-27T14:06:08.158Z,14.62
2019-04-27T14:08:35.161Z,15.03
2019-04-27T14:11:02.218Z,14.96
2019-04-27T14:13:29.260Z,15.14
2019-04-27T14:15:56.658Z,15.35
2019-04-27T14:18:23.965Z,15.24
2019-04-27T14:20:52.091Z,14.96
2019-04-27T14:23:19.133Z,14.70
2019-04-27T14:25:46.187Z,14.53
2019-04-27T14:28:13.537Z,14.23
2019-04-27T14:30:40.599Z,13.98
2019-04-27T14:33:08.469Z,13.74
2019-04-27T14:35:35.570Z,13.43
2019-04-27T14:38:02.611Z,13.21
2019-04-27T14:40:29.673Z,12.99
2019-04-27T14:42:56.711Z,12.88
2019-04-27T14:45:23.822Z,12.87
2019-04-27T14:47:50.887Z,13.07
2019-04-27T14:50:18.794Z,13.04
2019-04-27T14:52:45.966Z,12.93
2019-04-27T14:55:13.322Z,12.81
2019-04-27T14:57:40.366Z,12.69
2019-04-27T15:00:07.423Z,12.58
2019-04-27T15:02:35.497Z,12.55
2019-04-27T15:05:02.565Z,12.35
2019-04-27T15:07:29.889Z,11.84
2019-04-27T15:09:57.607Z,11.16
2019-04-27T15:12:30.610Z,9.88
2019-04-27T15:14:57.304Z,8.04
2019-04-27T15:17:25.570Z,7.30
2019-04-27T15:19:52.756Z,7.02
2019-04-27T15:22:22.668Z,6.88
2019-04-27T15:25:07.711Z,6.73
2019-04-27T15:27:17.379Z,6.64
2019-04-27T15:29:44.412Z,6.64
2019-04-27T15:32:12.407Z,6.65
2019-04-27T15:34:40.079Z,6.73
2019-04-27T15:37:08.494Z,6.61
2019-04-27T15:39:35.848Z,6.72
2019-04-27T15:42:07.982Z,6.80
2019-04-27T15:44:31.991Z,6.89
2019-04-27T15:46:59.345Z,6.93
2019-04-27T15:49:26.386Z,6.84
2019-04-27T15:51:54.727Z,6.90
2019-04-27T15:54:26.399Z,7.01
2019-04-27T15:56:51.484Z,6.98
2019-04-27T15:59:18.785Z,7.17
2019-04-27T16:01:46.145Z,7.15
2019-04-27T16:04:13.183Z,7.29
2019-04-27T16:06:42.880Z,7.48
2019-04-27T16:09:10.024Z,7.45
2019-04-27T16:11:37.166Z,7.49
2019-04-27T16:14:06.707Z,7.54
2019-04-27T16:16:33.591Z,7.65
2019-04-27T16:19:03.534Z,7.87
2019-04-27T16:21:31.508Z,8.27
2019-04-27T16:23:58.234Z,8.59
2019-04-27T16:26:25.545Z,8.56
2019-04-27T16:28:53.606Z,8.36
2019-04-27T16:31:24.942Z,8.11
2019-04-27T16:33:54.132Z,7.94
2019-04-27T16:36:19.741Z,7.68
2019-04-27T16:38:48.242Z,7.64
2019-04-27T16:41:15.288Z,7.62
2019-04-27T16:43:42.340Z,7.53
2019-04-27T16:46:09.371Z,7.50
2019-04-27T16:48:36.420Z,7.53
2019-04-27T16:51:03.468Z,7.52
2019-04-27T16:53:39.535Z,7.54
2019-04-27T16:56:02.009Z,7.55
2019-04-27T16:58:31.853Z,7.44
2019-04-27T17:01:00.134Z,7.28
2019-04-27T17:03:26.982Z,7.21
2019-04-27T17:05:54.016Z,7.20
2019-04-27T17:08:26.094Z,7.11
2019-04-27T17:10:50.204Z,7.04
2019-04-27T17:13:18.616Z,6.92
2019-04-27T17:15:52.838Z,6.87
2019-04-27T17:18:14.691Z,6.75
2019-04-27T17:20:42.005Z,6.61
2019-04-27T17:23:09.145Z,6.52
2019-04-27T17:25:39.688Z,6.39
2019-04-27T17:28:05.235Z,6.28
2019-04-27T17:30:37.865Z,6.24
2019-04-27T17:33:05.900Z,6.20
2019-04-27T17:35:30.387Z,6.11
2019-04-27T17:37:59.438Z,6.10
2019-04-27T17:40:29.933Z,6.01
2019-04-27T17:43:03.329Z,5.89
2019-04-27T17:45:24.757Z,5.78
2019-04-27T17:47:52.052Z,5.65
2019-04-27T17:50:25.064Z,5.54
2019-04-27T17:52:54.617Z,5.49
2019-04-27T17:55:23.002Z,5.42
2019-04-27T17:57:45.353Z,5.36
2019-04-27T18:00:12.377Z,5.33
2019-04-27T18:02:42.386Z,5.35
2019-04-27T18:05:09.504Z,5.37
2019-04-27T18:07:42.640Z,5.43
2019-04-27T18:10:08.734Z,5.54
2019-04-27T18:12:36.210Z,5.58
2019-04-27T18:15:03.271Z,5.52
2019-04-27T18:17:31.327Z,5.48
2019-04-27T18:19:59.625Z,5.33
2019-04-27T18:22:28.189Z,5.20
2019-04-27T18:24:55.705Z,5.04
2019-04-27T18:27:24.754Z,4.95
2019-04-27T18:29:51.808Z,4.89
2019-04-27T18:32:19.142Z,4.79
2019-04-27T18:34:49.376Z,4.77
2019-04-27T18:37:20.999Z,4.71
2019-04-27T18:39:45.470Z,4.69
2019-04-27T18:42:12.414Z,4.69
2019-04-27T18:44:39.465Z,4.70
2019-04-27T18:47:08.448Z,4.72
2019-04-27T18:49:35.954Z,4.76
2019-04-27T18:52:04.407Z,4.75
2019-04-27T18:54:33.082Z,4.78
2019-04-27T18:57:02.660Z,4.80
2019-04-27T18:59:29.779Z,4.77
2019-04-27T19:01:58.026Z,4.77
2019-04-27T19:04:25.153Z,4.78
2019-04-27T19:06:52.190Z,4.80
2019-04-27T19:09:19.248Z,4.79
2019-04-27T19:11:54.187Z,4.78
2019-04-27T19:14:15.105Z,4.79
2019-04-27T19:16:42.143Z,4.77
2019-04-27T19:19:09.213Z,4.79
2019-04-27T19:21:36.247Z,4.80
2019-04-27T19:24:03.282Z,4.81
2019-04-27T19:26:30.625Z,4.85
2019-04-27T19:28:58.441Z,4.89
2019-04-27T19:31:25.579Z,4.95
2019-04-27T19:33:52.617Z,4.94
2019-04-27T19:36:19.669Z,4.97
2019-04-27T19:44:04.646Z,5.02
2019-04-27T19:46:33.863Z,4.97
2019-04-27T19:49:04.117Z,4.97
2019-04-27T19:51:36.782Z,4.93
2019-04-27T19:54:04.112Z,4.90
2019-04-27T19:56:32.309Z,4.87
2019-04-27T19:59:00.592Z,4.85
2019-04-27T20:01:28.131Z,4.75
2019-04-27T20:03:59.787Z,4.56
2019-04-27T20:06:32.088Z,4.25
2019-04-27T20:09:08.578Z,3.99
2019-04-27T20:11:37.064Z,3.78
2019-04-27T20:14:04.420Z,3.68
2019-04-27T20:16:32.679Z,3.62
2019-04-27T20:19:01.533Z,3.57
2019-04-27T20:21:30.813Z,3.57
2019-04-27T20:23:58.066Z,3.63
2019-04-27T20:26:27.117Z,3.69
2019-04-27T20:28:58.440Z,3.71
2019-04-27T20:31:25.685Z,3.74
2019-04-27T20:33:59.867Z,3.79
2019-04-27T20:36:27.053Z,3.82
2019-04-27T20:39:01.173Z,3.87
2019-04-27T20:44:03.321Z,4.04
2019-04-27T20:46:31.298Z,4.04
2019-04-27T20:49:04.393Z,4.05
2019-04-27T20:51:33.982Z,4.09
2019-04-27T20:54:05.346Z,4.09
2019-04-27T20:56:33.595Z,4.10
2019-04-27T20:59:01.701Z,4.08
2019-04-27T21:01:33.984Z,4.07
2019-04-27T21:04:01.309Z,4.07
2019-04-27T21:06:28.749Z,4.09
2019-04-27T21:08:55.928Z,4.13
2019-04-27T21:11:24.120Z,4.17
2019-04-27T21:13:58.617Z,4.15
2019-04-27T21:18:58.424Z,4.21
2019-04-27T21:21:30.128Z,4.21
2019-04-27T21:23:59.321Z,4.20
2019-04-27T21:26:27.506Z,4.23
2019-04-27T21:28:58.597Z,4.25
2019-04-27T21:34:20.393Z,4.26
2019-04-27T21:42:00.906Z,4.16
2019-04-27T21:44:28.399Z,4.16
2019-04-27T21:52:22.057Z,4.19
2019-04-27T21:55:01.445Z,4.22
2019-04-27T21:57:28.711Z,4.22
2019-04-27T21:59:56.901Z,4.23
2019-04-27T22:02:27.399Z,4.21
2019-04-27T22:04:59.808Z,4.21
2019-04-27T22:07:31.724Z,4.21
2019-04-27T22:10:01.999Z,4.20
2019-04-27T22:12:31.240Z,4.24
2019-04-27T22:15:01.041Z,4.20
2019-04-27T22:22:49.407Z,4.18
2019-04-27T22:25:18.653Z,4.19
2019-04-27T22:30:21.811Z,4.19
2019-04-27T22:32:49.062Z,4.21
2019-04-27T22:35:16.307Z,4.21
2019-04-27T22:37:43.829Z,4.18
2019-04-27T22:40:12.134Z,4.17
2019-04-27T22:42:41.545Z,4.16
2019-04-27T22:45:08.981Z,4.15
2019-04-27T22:47:38.213Z,4.11
2019-04-27T22:50:10.700Z,4.06
2019-04-27T22:52:38.812Z,3.99
2019-04-27T22:55:05.998Z,3.95
2019-04-27T22:57:34.316Z,3.87
2019-04-27T23:00:03.731Z,3.78
2019-04-27T23:02:32.445Z,3.73
2019-04-27T23:04:59.495Z,3.68
2019-04-27T23:07:26.530Z,3.63
2019-04-27T23:09:53.577Z,3.63
2019-04-27T23:12:21.342Z,3.67
2019-04-27T23:14:49.601Z,3.73
2019-04-27T23:17:16.635Z,3.73
2019-04-27T23:19:43.683Z,3.73
2019-04-27T23:22:11.147Z,3.76
2019-04-27T23:24:38.437Z,3.77
2019-04-27T23:27:05.475Z,3.81
2019-04-27T23:29:33.182Z,3.80
2019-04-27T23:32:01.661Z,3.81
2019-04-27T23:34:28.742Z,3.83
2019-04-27T23:36:56.036Z,3.87
2019-04-27T23:39:23.090Z,3.87
2019-04-27T23:41:50.129Z,3.88
2019-04-27T23:44:17.177Z,3.87
2019-04-27T23:46:44.242Z,3.86
2019-04-27T23:49:12.173Z,3.86
2019-04-27T23:51:39.177Z,3.83
2019-04-27T23:54:06.218Z,3.76
2019-04-27T23:56:33.510Z,3.72
2019-04-27T23:59:00.800Z,3.73
